Time;durP1;ratioP1;P1;durP2;ratioP2;P2;SDS_P1;SDS_P2;PMS_P1;PMS_P2;Temp;Humidity;BMP_temperature;BMP_pressure;BME280_temperature;BME280_humidity;BME280_pressure;Samples;Min_cycle;Max_cycle;Signal;HPM_P1;HPM_P2
2023/05/30 00:00:01;;;;;;;1.80;0.50;;;;;;;10.07;100.00;99766.34;105824;1259;61565;-45
2023/05/30 00:02:32;;;;;;;3.00;0.70;;;;;;;9.98;100.00;99764.05;105428;1254;60514;-45
2023/05/30 00:05:00;;;;;;;1.80;0.50;;;;;;;9.97;100.00;99762.83;105444;1257;73774;-45
2023/05/30 00:07:28;;;;;;;4.20;0.60;;;;;;;9.98;100.00;99756.72;105443;1257;69535;-47
2023/05/30 00:09:55;;;;;;;2.90;0.60;;;;;;;9.99;100.00;99756.48;105328;1254;71373;-45
2023/05/30 00:12:23;;;;;;;0.70;0.50;;;;;;;9.99;100.00;99760.09;105480;1259;60351;-45
2023/05/30 00:14:50;;;;;;;3.80;0.80;;;;;;;9.97;100.00;99765.16;105495;1258;60147;-45
2023/05/30 00:17:20;;;;;;;10.00;0.80;;;;;;;9.96;100.00;99760.55;105398;1254;73834;-44
2023/05/30 00:19:48;;;;;;;7.20;1.00;;;;;;;9.98;100.00;99759.59;105443;1254;67584;-45
2023/05/30 00:22:19;;;;;;;5.50;1.00;;;;;;;10.00;100.00;99761.66;105380;1259;72824;-45
2023/05/30 00:24:49;;;;;;;4.10;0.90;;;;;;;10.00;100.00;99762.70;105674;1257;60530;-45
2023/05/30 00:27:17;;;;;;;6.30;0.90;;;;;;;10.00;100.00;99765.07;106163;1256;60367;-47
2023/05/30 00:29:47;;;;;;;2.30;0.80;;;;;;;9.98;100.00;99767.09;105404;1257;73808;-46
2023/05/30 00:32:15;;;;;;;1.20;0.60;;;;;;;9.97;100.00;99759.97;105425;1254;67583;-46
2023/05/30 00:34:44;;;;;;;3.60;0.80;;;;;;;9.97;100.00;99760.17;105606;1254;73072;-45
2023/05/30 00:37:12;;;;;;;11.10;1.10;;;;;;;9.97;100.00;99757.30;105379;1259;60478;-46
2023/05/30 00:39:39;;;;;;;3.50;0.70;;;;;;;9.96;100.00;99758.23;105485;1259;60555;-44
2023/05/30 00:42:07;;;;;;;3.30;0.70;;;;;;;9.93;100.00;99754.63;106148;1256;73851;-45
2023/05/30 00:44:34;;;;;;;10.00;0.90;;;;;;;9.88;100.00;99754.46;105617;1260;67458;-45
2023/05/30 00:47:02;;;;;;;5.50;0.70;;;;;;;9.87;100.00;99751.81;105586;1257;71265;-45
2023/05/30 00:49:29;;;;;;;4.10;0.90;;;;;;;9.88;100.00;99751.41;105533;1258;61700;-47
2023/05/30 00:51:57;;;;;;;4.50;1.00;;;;;;;9.88;100.00;99751.23;105521;1254;60514;-47
2023/05/30 00:54:24;;;;;;;2.10;0.70;;;;;;;9.90;100.00;99750.65;105459;1254;72614;-46
2023/05/30 00:56:51;;;;;;;4.80;0.90;;;;;;;9.86;100.00;99748.29;105457;1254;67751;-47
2023/05/30 00:59:20;;;;;;;4.20;0.80;;;;;;;9.80;100.00;99744.79;106323;1254;72742;-45
2023/05/30 01:01:47;;;;;;;9.00;1.40;;;;;;;9.73;100.00;99742.95;105557;1257;60662;-46
2023/05/30 01:04:15;;;;;;;3.80;0.70;;;;;;;9.70;100.00;99742.60;105735;1259;60533;-45
2023/05/30 01:06:46;;;;;;;5.20;0.90;;;;;;;9.63;100.00;99743.77;105724;1256;74242;-45
2023/05/30 01:09:16;;;;;;;4.00;0.90;;;;;;;9.53;100.00;99741.73;105473;1259;68364;-47
2023/05/30 01:12:00;;;;;;;4.90;0.90;;;;;;;9.44;100.00;99740.30;105375;1254;72634;-46
2023/05/30 01:14:35;;;;;;;1.30;0.60;;;;;;;9.37;100.00;99741.70;106088;1259;60479;-45
2023/05/30 01:17:10;;;;;;;1.30;0.60;;;;;;;9.29;100.00;99742.98;105462;1258;60431;-46
2023/05/30 01:19:57;;;;;;;1.40;0.60;;;;;;;9.18;100.00;99748.98;105327;1254;73894;-46
2023/05/30 01:22:38;;;;;;;2.20;0.60;;;;;;;9.05;100.00;99746.65;105514;1258;68053;-44
2023/05/30 01:25:35;;;;;;;1.60;0.40;;;;;;;8.99;100.00;99747.27;106177;1260;71741;-45
2023/05/30 01:28:13;;;;;;;1.40;0.40;;;;;;;9.00;100.00;99743.15;105211;1254;60775;-45
2023/05/30 01:30:45;;;;;;;1.50;0.60;;;;;;;9.02;100.00;99743.92;105403;1259;60493;-46
2023/05/30 01:33:13;;;;;;;2.60;0.60;;;;;;;9.02;100.00;99743.75;105384;1253;74397;-46
2023/05/30 01:35:44;;;;;;;1.00;0.70;;;;;;;9.04;100.00;99746.90;106416;1254;66885;-46
2023/05/30 01:38:12;;;;;;;1.20;0.70;;;;;;;9.04;100.00;99743.66;105414;1254;72699;-45
2023/05/30 01:40:41;;;;;;;0.90;0.70;;;;;;;9.04;100.00;99745.27;105442;1254;60536;-44
2023/05/30 01:43:42;;;;;;;4.20;0.60;;;;;;;9.05;100.00;99746.86;105416;1254;60306;-45
2023/05/30 01:46:24;;;;;;;1.80;0.70;;;;;;;9.07;100.00;99750.35;105454;1254;73863;-45
2023/05/30 01:49:36;;;;;;;1.30;0.60;;;;;;;9.07;100.00;99752.52;105754;1258;67177;-46
2023/05/30 01:52:10;;;;;;;1.70;0.80;;;;;;;9.05;100.00;99753.13;104811;1267;72523;-46
2023/05/30 01:54:38;;;;;;;1.00;0.70;;;;;;;9.03;100.00;99756.23;105127;1267;60658;-45
2023/05/30 01:57:08;;;;;;;2.90;0.70;;;;;;;9.02;100.00;99750.20;105169;1254;60508;-46
2023/05/30 01:59:36;;;;;;;0.90;0.50;;;;;;;9.01;100.00;99751.12;106059;1259;73837;-45
2023/05/30 02:02:03;;;;;;;2.50;0.60;;;;;;;9.00;100.00;99753.14;105528;1254;67922;-45
2023/05/30 02:04:31;;;;;;;1.00;0.60;;;;;;;8.95;100.00;99752.46;105990;1255;71449;-46
2023/05/30 02:06:58;;;;;;;0.90;0.70;;;;;;;8.86;100.00;99754.27;105610;1254;60581;-46
2023/05/30 02:09:27;;;;;;;0.90;0.70;;;;;;;8.80;100.00;99751.13;106797;1254;61286;-46
2023/05/30 02:11:55;;;;;;;1.40;0.70;;;;;;;8.79;100.00;99754.40;105449;1254;75083;-47
2023/05/30 02:14:22;;;;;;;1.50;0.60;;;;;;;8.78;100.00;99751.75;105347;1259;68386;-46
2023/05/30 02:16:49;;;;;;;2.20;0.80;;;;;;;8.77;100.00;99754.27;105391;1254;74968;-46
2023/05/30 02:19:18;;;;;;;4.70;0.80;;;;;;;8.76;100.00;99752.56;105345;1261;62457;-46
2023/05/30 02:21:45;;;;;;;4.50;0.80;;;;;;;8.72;100.00;99751.64;105515;1257;63537;-47
2023/05/30 02:24:13;;;;;;;0.90;0.90;;;;;;;8.66;100.00;99747.77;105482;1259;75313;-48
2023/05/30 02:26:40;;;;;;;6.50;1.00;;;;;;;8.62;100.00;99749.52;105471;1260;69931;-47
2023/05/30 02:29:08;;;;;;;2.60;0.70;;;;;;;8.61;100.00;99750.64;105496;1259;74601;-47
2023/05/30 02:31:35;;;;;;;3.50;0.70;;;;;;;8.59;100.00;99754.30;105405;1259;62024;-45
2023/05/30 02:34:03;;;;;;;3.90;0.80;;;;;;;8.57;100.00;99757.42;105434;1254;62339;-46
2023/05/30 02:36:32;;;;;;;1.60;0.80;;;;;;;8.55;100.00;99755.91;105445;1260;76215;-46
2023/05/30 02:39:06;;;;;;;1.30;0.80;;;;;;;8.54;100.00;99751.30;109138;1254;70289;-48
2023/05/30 02:41:37;;;;;;;2.10;0.80;;;;;;;8.58;100.00;99753.46;109037;1254;71652;-48
2023/05/30 02:44:06;;;;;;;1.40;0.80;;;;;;;8.64;100.00;99751.77;107619;1258;62316;-46
2023/05/30 02:46:34;;;;;;;2.50;0.70;;;;;;;8.64;100.00;99748.01;109146;1252;62128;-48
2023/05/30 02:49:03;;;;;;;1.30;0.80;;;;;;;8.64;100.00;99747.31;109177;1253;75013;-48
2023/05/30 02:51:31;;;;;;;2.40;0.80;;;;;;;8.66;100.00;99747.41;109031;1253;69502;-48
2023/05/30 02:53:59;;;;;;;0.90;0.70;;;;;;;8.71;100.00;99745.77;109026;1254;73775;-48
2023/05/30 02:56:49;;;;;;;1.90;0.70;;;;;;;8.75;100.00;99748.85;108847;1254;61350;-48
2023/05/30 02:59:38;;;;;;;4.10;0.60;;;;;;;8.71;100.00;99747.56;105822;1259;62458;-46
2023/05/30 03:02:09;;;;;;;2.20;0.70;;;;;;;8.73;100.00;99750.36;109110;1254;74996;-48
2023/05/30 03:04:37;;;;;;;3.70;0.80;;;;;;;8.77;100.00;99753.40;108797;1254;139176;-47
2023/05/30 03:08:33;;;;;;;1.60;0.70;;;;;;;8.88;100.00;99749.70;102392;1296;600298;-47
2023/05/30 03:11:01;;;;;;;1.70;0.80;;;;;;;8.95;100.00;99753.52;104932;1270;62445;-47
2023/05/30 03:13:29;;;;;;;2.00;0.90;;;;;;;9.03;100.00;99757.88;104322;1273;62024;-47
2023/05/30 03:15:56;;;;;;;1.90;1.00;;;;;;;9.11;100.00;99758.98;104744;1268;74755;-47
2023/05/30 03:18:24;;;;;;;1.60;0.90;;;;;;;9.19;100.00;99757.92;104491;1267;70034;-47
2023/05/30 03:20:51;;;;;;;5.60;1.10;;;;;;;9.27;100.00;99756.67;104519;1273;72614;-48
2023/05/30 03:23:20;;;;;;;1.90;1.10;;;;;;;9.33;100.00;99757.12;105822;1269;386210;-47
2023/05/30 03:25:48;;;;;;;2.20;1.00;;;;;;;9.38;100.00;99754.55;104766;1270;62350;-47
2023/05/30 03:28:15;;;;;;;4.10;0.90;;;;;;;9.44;100.00;99758.75;104512;1263;74598;-47
2023/05/30 03:31:03;;;;;;;2.20;0.90;;;;;;;9.52;100.00;99756.64;104893;1264;70168;-46
2023/05/30 03:33:31;;;;;;;2.70;1.00;;;;;;;9.61;100.00;99758.55;104891;1265;75473;-47
2023/05/30 03:35:58;;;;;;;13.10;1.10;;;;;;;9.72;100.00;99756.44;104615;1266;62793;-47
2023/05/30 03:38:26;;;;;;;3.70;1.00;;;;;;;9.84;100.00;99759.66;104459;1264;63657;-45
2023/05/30 03:40:54;;;;;;;2.10;1.10;;;;;;;9.96;100.00;99758.61;105053;1264;74593;-46
2023/05/30 03:43:22;;;;;;;1.70;1.00;;;;;;;10.06;100.00;99761.89;104837;1264;69466;-47
2023/05/30 03:45:49;;;;;;;7.10;1.30;;;;;;;10.18;100.00;99761.92;104656;1270;73777;-48
2023/05/30 03:48:17;;;;;;;3.70;1.40;;;;;;;10.28;100.00;99759.30;104697;1269;63247;-48
2023/05/30 03:50:44;;;;;;;6.40;1.20;;;;;;;10.38;100.00;99763.85;104747;1263;60346;-45
2023/05/30 03:53:12;;;;;;;3.50;1.20;;;;;;;10.46;100.00;99758.06;104738;1264;75552;-47
2023/05/30 03:55:40;;;;;;;3.60;1.90;;;;;;;10.54;100.00;99759.46;104646;1264;69850;-47
2023/05/30 03:58:07;;;;;;;5.00;1.10;;;;;;;10.65;100.00;99759.30;104798;1266;75027;-48
2023/05/30 04:00:35;;;;;;;2.60;1.30;;;;;;;10.76;100.00;99762.19;104655;1264;63934;-47
2023/05/30 04:03:02;;;;;;;5.10;1.10;;;;;;;10.89;100.00;99770.34;104808;1270;62066;-47
2023/05/30 04:05:30;;;;;;;2.90;1.30;;;;;;;11.01;100.00;99769.90;105402;1263;74005;-47
2023/05/30 04:07:57;;;;;;;3.90;1.70;;;;;;;11.16;100.00;99772.39;104846;1264;70401;-46
2023/05/30 04:10:25;;;;;;;2.70;1.30;;;;;;;11.33;100.00;99771.88;104605;1267;73785;-46
2023/05/30 04:12:52;;;;;;;3.20;1.20;;;;;;;11.51;100.00;99770.80;104351;1264;62399;-46
2023/05/30 04:15:20;;;;;;;1.40;1.10;;;;;;;11.68;100.00;99772.73;104367;1264;62242;-47
2023/05/30 04:17:49;;;;;;;2.70;1.10;;;;;;;11.85;100.00;99774.05;104920;1269;75713;-46
2023/05/30 04:20:17;;;;;;;1.60;1.40;;;;;;;12.00;100.00;99775.02;104818;1263;68292;-47
2023/05/30 04:22:45;;;;;;;4.80;1.50;;;;;;;12.16;100.00;99780.66;105161;1266;76161;-46
2023/05/30 04:25:12;;;;;;;3.00;1.40;;;;;;;12.31;100.00;99776.60;104581;1263;60892;-44
2023/05/30 04:27:41;;;;;;;5.40;1.60;;;;;;;12.48;100.00;99779.06;104343;1264;61063;-48
2023/05/30 04:30:17;;;;;;;3.20;1.20;;;;;;;12.66;100.00;99779.28;104395;1266;74875;-47
2023/05/30 04:32:45;;;;;;;3.20;1.00;;;;;;;12.83;100.00;99781.55;104703;1264;70676;-48
2023/05/30 04:35:13;;;;;;;1.90;1.00;;;;;;;12.99;100.00;99778.33;104949;1264;75069;-45
2023/05/30 04:37:44;;;;;;;4.80;1.10;;;;;;;13.12;100.00;99780.27;104844;1272;64265;-47
2023/05/30 04:40:13;;;;;;;1.30;1.00;;;;;;;13.26;100.00;99783.05;105034;1266;61153;-48
2023/05/30 04:42:41;;;;;;;2.70;1.00;;;;;;;13.40;100.00;99783.29;105087;1267;75100;-47
2023/05/30 04:45:09;;;;;;;3.40;1.10;;;;;;;13.56;100.00;99788.64;105012;1260;70295;-46
2023/05/30 04:47:38;;;;;;;6.80;1.20;;;;;;;13.72;100.00;99793.48;104952;1267;75040;-47
2023/05/30 04:50:09;;;;;;;5.30;0.90;;;;;;;13.86;100.00;99792.58;104759;1260;61522;-45
2023/05/30 04:52:37;;;;;;;3.30;1.30;;;;;;;14.00;100.00;99793.70;104872;1257;63330;-48
2023/05/30 04:55:05;;;;;;;4.20;1.20;;;;;;;14.15;100.00;99792.98;105049;1256;75402;-45
2023/05/30 04:57:33;;;;;;;4.60;1.30;;;;;;;14.29;100.00;99791.52;106501;1257;70410;-46
2023/05/30 05:00:01;;;;;;;4.40;1.20;;;;;;;14.44;100.00;99789.91;105602;1260;74346;-48
2023/05/30 05:02:28;;;;;;;2.70;1.40;;;;;;;14.58;100.00;99790.98;105227;1261;60139;-47
2023/05/30 05:04:56;;;;;;;6.80;0.90;;;;;;;14.74;100.00;99794.98;105686;1256;62524;-48
2023/05/30 05:07:23;;;;;;;5.50;1.00;;;;;;;14.91;100.00;99795.70;105137;1260;77081;-48
2023/05/30 05:10:06;;;;;;;2.40;0.80;;;;;;;15.12;100.00;99798.48;105451;1259;70315;-46
2023/05/30 05:12:34;;;;;;;1.80;0.80;;;;;;;15.31;100.00;99802.05;105031;1260;75801;-49
2023/05/30 05:15:01;;;;;;;6.80;0.80;;;;;;;15.49;100.00;99803.20;105070;1260;62180;-48
2023/05/30 05:17:29;;;;;;;2.70;1.10;;;;;;;15.66;100.00;99808.76;105309;1260;62590;-49
2023/05/30 05:19:56;;;;;;;2.80;1.00;;;;;;;15.82;100.00;99812.38;104819;1260;73446;-48
2023/05/30 05:22:26;;;;;;;0.80;0.50;;;;;;;15.98;100.00;99815.79;105046;1260;69086;-48
2023/05/30 05:24:53;;;;;;;0.90;0.50;;;;;;;16.16;100.00;99813.81;104918;1260;74824;-49
2023/05/30 05:27:21;;;;;;;2.50;0.60;;;;;;;16.31;100.00;99813.98;105204;1260;62411;-49
2023/05/30 05:29:48;;;;;;;1.90;0.40;;;;;;;16.47;100.00;99814.98;105155;1262;61136;-49
2023/05/30 05:32:16;;;;;;;0.60;0.40;;;;;;;16.62;100.00;99813.40;104935;1259;74589;-49
2023/05/30 05:34:43;;;;;;;0.50;0.30;;;;;;;16.77;100.00;99814.51;104732;1260;71176;-49
2023/05/30 05:37:11;;;;;;;2.20;0.40;;;;;;;16.90;100.00;99817.17;104931;1263;75313;-47
2023/05/30 05:39:38;;;;;;;1.00;0.30;;;;;;;17.02;100.00;99817.52;104744;1260;61565;-47
2023/05/30 05:42:06;;;;;;;2.60;0.30;;;;;;;17.14;100.00;99817.02;104997;1260;62799;-47
2023/05/30 05:44:34;;;;;;;3.00;0.40;;;;;;;17.25;100.00;99814.55;108781;1259;74976;-51
2023/05/30 05:47:01;;;;;;;2.90;0.40;;;;;;;17.38;100.00;99817.55;106384;1259;69122;-50
2023/05/30 05:49:29;;;;;;;2.50;0.40;;;;;;;17.52;100.00;99825.38;104898;1262;74772;-46
2023/05/30 05:51:56;;;;;;;1.40;0.40;;;;;;;17.66;100.00;99825.80;104949;1260;61220;-49
2023/05/30 05:54:25;;;;;;;1.30;0.30;;;;;;;17.77;100.00;99826.58;105102;1259;62643;-48
2023/05/30 05:56:53;;;;;;;1.00;0.30;;;;;;;17.86;100.00;99827.55;105073;1258;75627;-48
2023/05/30 05:59:20;;;;;;;1.70;0.30;;;;;;;17.94;100.00;99823.67;105109;1259;69702;-49
2023/05/30 06:01:48;;;;;;;4.10;0.40;;;;;;;18.03;100.00;99828.88;105076;1257;74880;-48
2023/05/30 06:04:15;;;;;;;1.30;0.30;;;;;;;18.13;100.00;99830.30;105015;1259;60789;-49
2023/05/30 06:06:43;;;;;;;3.10;0.30;;;;;;;18.22;100.00;99825.66;108575;1257;62457;-51
2023/05/30 06:09:10;;;;;;;0.90;0.40;;;;;;;18.30;100.00;99826.64;108604;1259;75590;-48
2023/05/30 06:11:38;;;;;;;3.30;0.30;;;;;;;18.39;100.00;99824.27;108526;1259;69923;-49
2023/05/30 06:14:05;;;;;;;0.40;0.30;;;;;;;18.48;100.00;99831.88;108505;1260;73783;-47
2023/05/30 06:16:32;;;;;;;0.80;0.30;;;;;;;18.57;100.00;99828.60;104951;1261;60301;-48
2023/05/30 06:19:00;;;;;;;0.90;0.30;;;;;;;18.66;100.00;99825.57;105611;1264;61171;-49
2023/05/30 06:21:27;;;;;;;1.00;0.30;;;;;;;18.73;100.00;99825.55;104975;1263;75449;-50
2023/05/30 06:23:55;;;;;;;4.00;0.30;;;;;;;18.78;100.00;99823.45;104724;1259;70320;-48
2023/05/30 06:26:22;;;;;;;0.60;0.30;;;;;;;18.86;100.00;99821.91;104293;1259;73839;-49
2023/05/30 06:28:50;;;;;;;2.50;0.40;;;;;;;18.94;100.00;99826.95;104688;1260;61231;-50
2023/05/30 06:31:17;;;;;;;2.90;0.30;;;;;;;19.01;100.00;99823.09;104636;1260;62402;-49
2023/05/30 06:33:45;;;;;;;1.10;0.30;;;;;;;19.07;100.00;99825.67;104788;1259;75301;-48
2023/05/30 06:36:12;;;;;;;2.10;0.30;;;;;;;19.12;100.00;99825.64;104822;1263;68915;-49
2023/05/30 06:38:40;;;;;;;0.40;0.20;;;;;;;19.18;100.00;99832.73;105136;1260;74985;-48
2023/05/30 06:41:07;;;;;;;2.10;0.20;;;;;;;19.24;100.00;99833.66;104888;1260;62645;-49
2023/05/30 06:43:34;;;;;;;0.60;0.30;;;;;;;19.30;100.00;99831.95;105017;1258;62335;-49
2023/05/30 06:46:02;;;;;;;2.40;0.40;;;;;;;19.36;100.00;99828.71;105089;1260;72630;-50
2023/05/30 06:48:30;;;;;;;1.30;0.40;;;;;;;19.42;100.00;99831.30;105359;1260;68912;-48
2023/05/30 06:50:57;;;;;;;1.80;0.20;;;;;;;19.48;100.00;99824.27;105207;1263;74203;-49
2023/05/30 06:53:25;;;;;;;0.40;0.30;;;;;;;19.53;100.00;99820.91;105053;1260;60997;-49
2023/05/30 06:55:53;;;;;;;0.30;0.30;;;;;;;19.61;100.00;99823.54;105042;1259;61126;-50
2023/05/30 06:58:20;;;;;;;1.30;0.30;;;;;;;19.66;100.00;99818.38;104604;1259;74196;-51
2023/05/30 07:00:47;;;;;;;0.30;0.30;;;;;;;19.70;100.00;99822.23;104738;1258;68288;-49
2023/05/30 07:03:15;;;;;;;2.00;0.40;;;;;;;19.73;100.00;99816.14;104978;1259;74995;-50
2023/05/30 07:05:42;;;;;;;0.60;0.30;;;;;;;19.76;100.00;99819.90;105232;1264;61343;-49
2023/05/30 07:08:10;;;;;;;1.80;0.30;;;;;;;19.81;100.00;99824.73;105059;1258;60562;-46
2023/05/30 07:10:37;;;;;;;0.90;0.20;;;;;;;19.84;100.00;99821.77;105267;1258;74265;-51
2023/05/30 07:13:05;;;;;;;0.60;0.30;;;;;;;19.87;100.00;99822.41;105270;1260;69112;-49
2023/05/30 07:15:33;;;;;;;1.20;0.40;;;;;;;19.90;100.00;99814.64;104915;1260;74030;-49
2023/05/30 07:18:00;;;;;;;1.30;0.20;;;;;;;19.94;100.00;99819.59;105581;1260;62047;-49
2023/05/30 07:20:29;;;;;;;0.90;0.30;;;;;;;19.98;100.00;99816.50;105329;1260;62404;-50
2023/05/30 07:22:56;;;;;;;2.20;0.30;;;;;;;20.02;100.00;99813.81;104942;1259;76210;-49
2023/05/30 07:25:24;;;;;;;1.40;0.30;;;;;;;20.04;100.00;99810.73;105164;1259;68156;-49
2023/05/30 07:27:51;;;;;;;0.40;0.20;;;;;;;20.06;100.00;99812.77;105006;1263;74962;-50
2023/05/30 07:30:19;;;;;;;1.90;0.30;;;;;;;20.08;100.00;99808.59;105111;1260;61232;-48
2023/05/30 07:32:46;;;;;;;0.50;0.40;;;;;;;20.12;100.00;99811.16;105152;1258;60891;-49
2023/05/30 07:35:14;;;;;;;1.70;0.30;;;;;;;20.18;100.00;99802.59;105377;1264;76175;-47
2023/05/30 07:37:41;;;;;;;1.20;0.30;;;;;;;20.25;100.00;99806.85;105138;1263;69956;-51
2023/05/30 07:40:09;;;;;;;0.30;0.30;;;;;;;20.30;100.00;99802.03;105018;1259;75303;-49
2023/05/30 07:42:37;;;;;;;1.10;0.30;;;;;;;20.32;100.00;99800.41;104934;1263;60480;-51
2023/05/30 07:45:05;;;;;;;0.30;0.30;;;;;;;20.34;100.00;99798.45;104826;1260;62306;-48
2023/05/30 07:47:33;;;;;;;0.70;0.30;;;;;;;20.37;100.00;99796.54;105579;1263;74560;-50
2023/05/30 07:50:00;;;;;;;0.90;0.40;;;;;;;20.42;100.00;99793.73;105130;1263;68885;-49
2023/05/30 07:52:28;;;;;;;1.60;0.30;;;;;;;20.46;100.00;99793.60;105175;1260;75051;-50
2023/05/30 07:54:55;;;;;;;0.40;0.30;;;;;;;20.49;100.00;99796.56;105034;1264;60501;-49
2023/05/30 07:57:23;;;;;;;0.60;0.30;;;;;;;20.54;100.00;99792.09;105191;1264;62674;-49
2023/05/30 07:59:50;;;;;;;7.20;0.60;;;;;;;20.59;100.00;99785.87;105151;1259;76652;-48
2023/05/30 08:02:19;;;;;;;1.80;0.40;;;;;;;20.65;100.00;99788.00;105362;1263;68827;-50
2023/05/30 08:04:46;;;;;;;1.00;0.30;;;;;;;20.73;100.00;99790.16;105385;1259;75078;-48
2023/05/30 08:07:14;;;;;;;2.00;0.50;;;;;;;20.81;100.00;99796.10;104932;1264;62352;-50
2023/05/30 08:09:41;;;;;;;0.60;0.40;;;;;;;20.85;100.00;99791.19;105177;1260;60876;-49
2023/05/30 08:12:16;;;;;;;1.00;0.40;;;;;;;20.89;100.00;99788.02;105045;1260;74007;-50
2023/05/30 08:14:43;;;;;;;1.90;0.40;;;;;;;20.94;100.00;99785.00;105358;1260;69143;-51
2023/05/30 08:17:11;;;;;;;0.50;0.40;;;;;;;20.99;100.00;99789.55;105084;1262;72969;-50
2023/05/30 08:19:40;;;;;;;0.50;0.30;;;;;;;21.02;100.00;99792.31;104947;1259;61162;-49
2023/05/30 08:22:10;;;;;;;1.50;0.30;;;;;;;21.03;100.00;99785.14;105173;1259;62342;-49
2023/05/30 08:24:37;;;;;;;0.50;0.40;;;;;;;21.03;100.00;99782.05;105168;1263;75990;-49
2023/05/30 08:27:06;;;;;;;1.10;0.40;;;;;;;21.04;100.00;99785.41;108645;1259;69424;-51
2023/05/30 08:29:33;;;;;;;0.30;0.30;;;;;;;21.05;100.00;99781.09;108650;1258;74994;-50
2023/05/30 08:32:01;;;;;;;0.30;0.30;;;;;;;21.06;100.00;99775.20;108700;1260;61474;-51
2023/05/30 08:34:28;;;;;;;1.80;0.30;;;;;;;21.11;100.00;99774.71;108650;1259;61438;-51
2023/05/30 08:36:56;;;;;;;2.00;0.30;;;;;;;21.16;100.00;99770.40;108671;1259;74943;-51
2023/05/30 08:39:23;;;;;;;0.70;0.30;;;;;;;21.23;100.00;99770.24;108771;1259;69126;-50
2023/05/30 08:41:50;;;;;;;0.90;0.30;;;;;;;21.30;100.00;99769.55;108625;1259;74845;-51
2023/05/30 08:44:19;;;;;;;4.20;0.50;;;;;;;21.38;100.00;99762.98;105915;1260;62329;-49
2023/05/30 08:46:47;;;;;;;1.30;0.30;;;;;;;21.41;100.00;99760.98;108776;1259;62387;-50
2023/05/30 08:49:17;;;;;;;0.90;0.30;;;;;;;21.41;100.00;99757.52;108195;1258;76219;-50
2023/05/30 08:51:45;;;;;;;0.70;0.40;;;;;;;21.43;100.00;99757.55;108053;1262;70286;-51
2023/05/30 08:54:17;;;;;;;1.00;0.30;;;;;;;21.44;100.00;99755.09;105019;1267;74579;-50
2023/05/30 08:56:50;;;;;;;;;;;;;;;21.45;100.00;99754.08;105022;1262;61916;-49
2023/05/30 08:59:18;;;;;;;0.90;0.40;;;;;;;21.47;100.00;99748.63;105017;1260;61910;-48
2023/05/30 09:01:46;;;;;;;2.20;0.30;;;;;;;21.48;100.00;99747.77;105057;1258;74999;-51
2023/05/30 09:04:14;;;;;;;1.30;0.30;;;;;;;21.48;100.00;99747.71;105070;1263;68026;-49
2023/05/30 09:06:41;;;;;;;0.60;0.30;;;;;;;21.48;100.00;99748.29;104886;1260;75016;-50
2023/05/30 09:09:09;;;;;;;3.20;0.30;;;;;;;21.50;100.00;99749.20;104742;1260;60626;-50
2023/05/30 09:11:36;;;;;;;3.10;0.40;;;;;;;21.52;100.00;99747.75;104858;1259;60510;-49
2023/05/30 09:14:04;;;;;;;0.90;0.30;;;;;;;21.52;100.00;99747.90;104610;1263;76179;-52
2023/05/30 09:16:31;;;;;;;1.70;0.30;;;;;;;21.55;100.00;99740.88;104897;1263;68685;-51
2023/05/30 09:18:58;;;;;;;0.40;0.30;;;;;;;21.59;100.00;99737.42;105004;1260;76904;-50
2023/05/30 09:21:33;;;;;;;1.90;0.30;;;;;;;21.63;100.00;99733.01;105413;1263;62478;-50
2023/05/30 09:24:04;;;;;;;1.20;0.40;;;;;;;21.66;100.00;99725.30;104889;1260;62149;-51
2023/05/30 09:26:32;;;;;;;0.90;0.30;;;;;;;21.69;100.00;99722.60;108733;1259;75679;-49
2023/05/30 09:29:10;;;;;;;0.80;0.50;;;;;;;21.73;100.00;99719.86;108732;1259;70112;-50
2023/05/30 09:31:37;;;;;;;0.40;0.30;;;;;;;21.78;100.00;99723.35;105095;1259;73822;-51
2023/05/30 09:34:05;;;;;;;0.60;0.30;;;;;;;21.86;100.00;99730.61;104707;1263;61500;-51
2023/05/30 09:36:33;;;;;;;1.10;0.30;;;;;;;21.93;100.00;99724.31;104800;1259;61104;-51
2023/05/30 09:39:03;;;;;;;8.20;0.40;;;;;;;21.96;100.00;99729.86;104848;1258;76188;-51
2023/05/30 09:41:31;;;;;;;1.30;0.30;;;;;;;21.96;100.00;99727.29;105914;1262;68750;-52
2023/05/30 09:43:59;;;;;;;0.40;0.40;;;;;;;21.98;100.00;99726.40;105460;1260;74813;-51
2023/05/30 09:46:28;;;;;;;1.00;0.30;;;;;;;22.02;100.00;99722.73;105000;1260;61199;-51
2023/05/30 09:48:56;;;;;;;0.80;0.30;;;;;;;22.10;100.00;99723.59;105345;1263;60913;-49
2023/05/30 09:51:25;;;;;;;2.30;0.50;;;;;;;22.19;100.00;99716.31;104923;1259;75352;-50
2023/05/30 09:54:00;;;;;;;2.20;0.40;;;;;;;22.25;100.00;99715.52;105473;1265;70928;-52
2023/05/30 09:56:38;;;;;;;2.30;0.30;;;;;;;22.30;100.00;99710.48;105096;1262;72821;-50
2023/05/30 09:59:07;;;;;;;3.90;0.40;;;;;;;22.30;100.00;99702.48;104972;1259;61227;-50
2023/05/30 10:01:36;;;;;;;0.80;0.40;;;;;;;22.31;100.00;99696.91;106032;1263;61525;-51
2023/05/30 10:04:11;;;;;;;1.50;0.30;;;;;;;22.29;100.00;99702.71;105247;1260;75936;-50
2023/05/30 10:06:41;;;;;;;6.40;0.30;;;;;;;22.32;100.00;99699.94;105142;1263;68188;-51
2023/05/30 10:09:09;;;;;;;0.50;0.30;;;;;;;22.33;100.00;99697.58;105019;1259;73708;-51
2023/05/30 10:11:38;;;;;;;0.40;0.30;;;;;;;22.34;100.00;99696.10;104960;1263;62260;-49
2023/05/30 10:14:06;;;;;;;1.40;0.30;;;;;;;22.36;100.00;99695.98;104963;1257;62128;-50
2023/05/30 10:16:35;;;;;;;0.40;0.30;;;;;;;22.42;100.00;99694.86;105120;1260;75816;-49
2023/05/30 10:19:04;;;;;;;0.40;0.30;;;;;;;22.47;100.00;99695.44;105168;1260;69257;-50
2023/05/30 10:21:34;;;;;;;1.30;0.40;;;;;;;22.47;100.00;99690.93;105693;1260;74188;-50
2023/05/30 10:24:01;;;;;;;1.20;0.30;;;;;;;22.44;100.00;99685.21;104990;1265;61156;-50
2023/05/30 10:26:34;;;;;;;0.30;0.30;;;;;;;22.43;100.00;99682.15;104509;1260;62268;-52
2023/05/30 10:29:05;;;;;;;1.10;0.40;;;;;;;22.44;100.00;99686.69;104706;1260;75997;-52
2023/05/30 10:31:32;;;;;;;0.90;0.40;;;;;;;22.47;100.00;99681.89;105158;1260;68373;-50
2023/05/30 10:34:05;;;;;;;1.40;0.40;;;;;;;22.51;100.00;99681.36;106466;1260;73858;-51
2023/05/30 10:36:34;;;;;;;3.60;0.40;;;;;;;22.55;100.00;99675.86;105416;1261;61048;-51
2023/05/30 10:39:10;;;;;;;1.10;0.40;;;;;;;22.58;100.00;99662.36;105116;1262;62236;-50
2023/05/30 10:41:48;;;;;;;3.80;0.40;;;;;;;22.62;100.00;99662.09;107914;1257;74961;-51
2023/05/30 10:44:46;;;;;;;0.50;0.30;;;;;;;22.69;100.00;99668.60;105111;1263;67613;-52
2023/05/30 10:47:30;;;;;;;1.80;0.30;;;;;;;22.71;100.00;99657.99;105030;1259;73765;-49
2023/05/30 10:49:57;;;;;;;1.20;0.40;;;;;;;22.72;100.00;99656.92;105026;1260;61183;-51
2023/05/30 10:52:32;;;;;;;4.50;0.30;;;;;;;22.76;100.00;99657.52;105443;1263;61212;-50
2023/05/30 10:55:00;;;;;;;4.70;0.40;;;;;;;22.83;100.00;99661.39;105873;1263;75993;-50
2023/05/30 10:57:31;;;;;;;0.40;0.30;;;;;;;22.89;100.00;99658.19;105298;1259;70258;-50
2023/05/30 11:00:16;;;;;;;1.60;0.30;;;;;;;22.92;100.00;99658.40;105245;1260;74757;-51
2023/05/30 11:02:44;;;;;;;3.20;0.60;;;;;;;22.93;100.00;99652.64;105042;1260;62289;-51
2023/05/30 11:05:11;;;;;;;3.70;0.40;;;;;;;22.92;100.00;99650.14;104945;1260;61281;-48
2023/05/30 11:07:40;;;;;;;1.20;0.40;;;;;;;22.93;100.00;99638.95;105035;1260;74977;-52
2023/05/30 11:10:11;;;;;;;1.30;0.40;;;;;;;22.96;100.00;99643.31;105022;1260;68680;-52
2023/05/30 11:12:47;;;;;;;0.50;0.30;;;;;;;22.97;100.00;99641.60;106142;1260;75010;-51
2023/05/30 11:15:16;;;;;;;0.70;0.40;;;;;;;23.01;100.00;99643.23;106217;1263;62323;-51
2023/05/30 11:17:43;;;;;;;1.40;0.40;;;;;;;23.06;100.00;99642.35;104983;1260;61609;-52
2023/05/30 11:20:14;;;;;;;0.50;0.40;;;;;;;23.11;100.00;99642.23;105124;1260;76495;-52
2023/05/30 11:23:02;;;;;;;1.90;0.30;;;;;;;23.10;100.00;99638.16;106335;1258;67992;-52
2023/05/30 11:25:32;;;;;;;0.70;0.30;;;;;;;23.08;100.00;99634.64;108510;1260;75506;-53
2023/05/30 11:28:03;;;;;;;0.90;0.30;;;;;;;23.07;100.00;99629.77;107663;1260;61711;-53
2023/05/30 11:30:31;;;;;;;0.40;0.30;;;;;;;23.08;100.00;99625.72;105005;1260;62069;-51